Time;durP1;ratioP1;P1;durP2;ratioP2;P2;SDS_P1;SDS_P2;PMS_P1;PMS_P2;Temp;Humidity;BMP_temperature;BMP_pressure;BME280_temperature;BME280_humidity;BME280_pressure;Samples;Min_cycle;Max_cycle;Signal;HPM_P1;HPM_P2
2021/08/01 00:00:04;;;;;;;6.60;5.00;;;;;;;18.04;64.21;99122.19;6074000;23;20030;-81
2021/08/01 00:02:31;;;;;;;7.72;6.38;;;;;;;18.07;63.63;99113.91;6073947;23;20513;-81
2021/08/01 00:08:23;;;;;;;7.35;5.88;;;;;;;18.05;63.70;99113.22;6098725;23;20105;-81
2021/08/01 00:10:52;;;;;;;6.82;5.57;;;;;;;18.03;63.93;99121.38;6074035;23;20027;-81
2021/08/01 00:13:25;;;;;;;6.07;5.47;;;;;;;18.01;64.71;99115.34;6074617;23;20098;-81
2021/08/01 00:15:54;;;;;;;6.75;5.28;;;;;;;18.02;64.18;99117.00;6073786;23;20349;-81
2021/08/01 00:18:21;;;;;;;6.80;5.75;;;;;;;18.04;64.06;99119.53;6073934;23;20383;-81
2021/08/01 00:20:49;;;;;;;8.85;6.32;;;;;;;18.03;63.92;99117.84;6073473;23;20101;-81
2021/08/01 00:23:24;;;;;;;7.50;5.90;;;;;;;18.01;64.71;99117.19;6073549;23;20069;-81
2021/08/01 00:25:50;;;;;;;6.68;5.97;;;;;;;18.04;64.03;99114.19;6073161;23;20022;-81
2021/08/01 00:28:54;;;;;;;6.85;6.15;;;;;;;17.99;64.77;99120.00;6073276;23;20093;-81
2021/08/01 00:31:36;;;;;;;9.13;6.57;;;;;;;17.99;64.88;99120.00;6073330;23;20018;-81
2021/08/01 00:34:03;;;;;;;6.78;6.07;;;;;;;18.03;63.85;99123.19;6073525;23;20458;-81
2021/08/01 00:37:14;;;;;;;8.00;6.07;;;;;;;17.97;64.94;99121.97;6073595;23;20025;-81
2021/08/01 00:39:41;;;;;;;8.95;5.97;;;;;;;18.00;64.02;99121.66;6097109;23;20446;-81
2021/08/01 00:42:08;;;;;;;10.00;6.22;;;;;;;17.99;63.96;99130.66;6073219;23;20018;-82
2021/08/01 00:44:34;;;;;;;10.40;6.28;;;;;;;17.97;64.20;99125.47;6072991;23;20060;-81
2021/08/01 00:50:44;;;;;;;8.85;6.22;;;;;;;17.96;64.28;99125.63;6098701;23;20516;-81
2021/08/01 00:53:40;;;;;;;8.40;6.63;;;;;;;17.90;64.74;99128.91;6073599;23;20410;-81
2021/08/01 00:56:08;;;;;;;6.53;5.72;;;;;;;17.93;64.28;99128.56;6073121;23;20101;-82
2021/08/01 00:58:36;;;;;;;7.68;6.68;;;;;;;17.89;64.14;99120.06;6073169;23;20101;-81
2021/08/01 01:04:09;;;;;;;8.30;6.65;;;;;;;17.82;65.27;99118.97;6099163;23;20052;-81
2021/08/01 01:10:36;;;;;;;9.90;6.83;;;;;;;17.81;65.03;99112.84;6098417;23;20049;-81
2021/08/01 01:13:11;;;;;;;8.15;5.97;;;;;;;17.82;65.10;99118.97;6096698;23;20357;-82
2021/08/01 01:15:45;;;;;;;9.35;6.43;;;;;;;17.81;65.15;99110.16;6072830;23;20061;-81
2021/08/01 01:18:18;;;;;;;8.27;7.10;;;;;;;17.80;65.40;99112.97;6053862;23;20057;-81
2021/08/01 01:21:07;;;;;;;9.13;6.80;;;;;;;17.77;65.14;99108.78;6072869;23;20030;-81
2021/08/01 01:24:17;;;;;;;10.73;7.03;;;;;;;17.76;65.27;99103.63;6097054;23;20097;-81
2021/08/01 01:26:56;;;;;;;10.15;7.25;;;;;;;17.75;65.50;99102.78;6096779;23;20022;-81
2021/08/01 01:30:00;;;;;;;9.93;7.95;;;;;;;17.73;65.29;99104.75;6097028;23;20113;-81
2021/08/01 01:33:12;;;;;;;11.40;7.68;;;;;;;17.70;65.16;99100.56;6072831;23;20065;-81
2021/08/01 01:35:45;;;;;;;10.38;7.55;;;;;;;17.73;64.47;99096.78;6096437;23;20464;-81
2021/08/01 01:38:30;;;;;;;9.17;7.53;;;;;;;17.66;65.24;99098.34;6073220;23;20105;-81
2021/08/01 01:40:57;;;;;;;8.65;7.78;;;;;;;17.69;64.73;99101.53;6072579;23;20246;-81
2021/08/01 01:43:39;;;;;;;10.45;7.60;;;;;;;17.64;65.42;99100.34;6098086;23;20019;-81
2021/08/01 01:46:06;;;;;;;10.45;7.85;;;;;;;17.65;64.78;99091.34;6096326;23;20098;-81
2021/08/01 01:48:44;;;;;;;11.15;8.82;;;;;;;17.61;65.82;99097.97;6073071;23;20390;-81
2021/08/01 01:51:13;;;;;;;10.00;8.27;;;;;;;17.62;65.18;99095.16;6072096;23;20019;-81
2021/08/01 01:57:06;;;;;;;9.57;8.07;;;;;;;17.60;65.29;99085.66;6097815;23;20022;-81
2021/08/01 01:59:40;;;;;;;11.27;9.00;;;;;;;17.57;65.56;99087.63;6072348;23;20097;-81
2021/08/01 02:02:06;;;;;;;;;;;;;;;17.58;65.16;99091.13;6073264;23;20378;-81
2021/08/01 02:04:40;;;;;;;10.60;7.53;;;;;;;17.59;65.25;99098.13;6072683;23;19921;-81
2021/08/01 02:07:07;;;;;;;9.93;8.50;;;;;;;17.59;64.83;99092.78;6072669;23;20018;-81
2021/08/01 02:09:47;;;;;;;10.57;8.45;;;;;;;17.53;65.49;99090.75;6071608;23;20085;-81
2021/08/01 02:12:23;;;;;;;8.60;7.72;;;;;;;17.49;65.50;99098.16;6071926;23;20101;-81
2021/08/01 02:15:40;;;;;;;9.88;8.88;;;;;;;17.43;65.70;99088.94;6072071;23;20019;-81
2021/08/01 02:21:34;;;;;;;9.52;8.40;;;;;;;17.39;65.80;99084.09;6097818;23;20141;-81
2021/08/01 02:24:03;;;;;;;11.18;8.57;;;;;;;17.41;65.09;99084.75;6072097;23;20021;-81
2021/08/01 02:26:44;;;;;;;11.52;8.90;;;;;;;17.35;66.23;99077.38;6072429;23;20397;-81
2021/08/01 02:29:13;;;;;;;11.25;8.10;;;;;;;17.37;65.50;99070.09;6072262;23;20097;-82
2021/08/01 02:31:53;;;;;;;9.93;8.25;;;;;;;17.32;66.59;99068.69;6072239;23;20101;-81
2021/08/01 02:34:22;;;;;;;10.27;8.50;;;;;;;17.36;65.74;99068.41;6072179;23;20097;-81
2021/08/01 02:36:54;;;;;;;13.93;9.30;;;;;;;17.34;66.24;99071.22;6072250;23;20014;-81
2021/08/01 02:39:22;;;;;;;9.52;8.38;;;;;;;17.36;65.81;99071.06;6072316;23;20097;-81
2021/08/01 02:42:02;;;;;;;10.50;8.88;;;;;;;17.34;66.30;99081.88;6072249;23;20018;-81
2021/08/01 02:44:33;;;;;;;12.90;9.98;;;;;;;17.37;65.82;99083.38;6071873;23;20025;-81
2021/08/01 02:47:20;;;;;;;13.40;10.07;;;;;;;17.35;66.52;99093.34;6072125;23;20025;-82
2021/08/01 02:49:49;;;;;;;12.68;9.80;;;;;;;17.39;65.75;99082.28;6072521;23;20847;-82
2021/08/01 02:52:38;;;;;;;13.43;9.60;;;;;;;17.35;66.47;99078.25;6072338;23;20022;-81
2021/08/01 02:55:07;;;;;;;12.05;10.10;;;;;;;17.40;65.77;99085.75;6071903;23;20023;-81
2021/08/01 02:57:44;;;;;;;11.85;9.63;;;;;;;17.38;66.50;99083.25;6073097;23;20090;-81
2021/08/01 03:00:11;;;;;;;14.30;10.60;;;;;;;17.41;65.95;99076.78;6071921;23;20089;-81
2021/08/01 03:02:49;;;;;;;15.13;11.57;;;;;;;17.37;66.60;99078.91;6072172;23;20033;-81
2021/08/01 03:05:17;;;;;;;13.35;11.18;;;;;;;17.42;66.10;99086.47;6072385;23;20466;-81
2021/08/01 03:07:53;;;;;;;16.42;12.52;;;;;;;17.39;66.63;99084.09;6072273;23;20382;-81
2021/08/01 03:10:20;;;;;;;15.40;11.63;;;;;;;17.44;66.15;99092.47;6072313;23;20390;-81
2021/08/01 03:13:07;;;;;;;15.45;11.65;;;;;;;17.42;66.86;99091.78;6072434;23;20101;-81
2021/08/01 03:15:34;;;;;;;15.27;10.38;;;;;;;17.47;65.96;99078.88;6072121;23;20065;-81
2021/08/01 03:18:18;;;;;;;11.98;10.07;;;;;;;17.45;66.91;99086.16;6072390;23;20113;-81
2021/08/01 03:20:45;;;;;;;14.65;10.43;;;;;;;17.51;66.22;99082.91;6071907;23;20097;-81
2021/08/01 03:23:28;;;;;;;14.10;10.38;;;;;;;17.47;66.80;99084.19;6071796;23;20018;-81
2021/08/01 03:25:55;;;;;;;13.60;9.93;;;;;;;17.54;66.21;99090.56;6072217;23;20097;-81
2021/08/01 03:28:37;;;;;;;14.18;11.07;;;;;;;17.51;66.84;99082.06;6071917;23;20024;-81
2021/08/01 03:31:03;;;;;;;12.18;10.88;;;;;;;17.56;66.04;99083.28;6072085;23;20102;-81
2021/08/01 03:33:30;;;;;;;13.88;10.98;;;;;;;17.56;65.83;99082.44;6072028;23;20398;-81
2021/08/01 03:36:06;;;;;;;13.80;10.65;;;;;;;17.53;66.52;99083.56;6072010;23;20373;-81
2021/08/01 03:38:33;;;;;;;15.13;10.80;;;;;;;17.56;65.90;99085.09;6072231;23;20105;-81
2021/08/01 03:41:30;;;;;;;11.95;10.23;;;;;;;17.51;66.59;99088.22;6071915;23;20029;-81
2021/08/01 03:43:57;;;;;;;17.60;11.80;;;;;;;17.55;65.95;99088.75;6071791;23;20093;-81
2021/08/01 03:46:43;;;;;;;12.95;10.77;;;;;;;17.49;66.61;99100.00;6072059;23;20422;-81
2021/08/01 03:49:10;;;;;;;13.65;10.60;;;;;;;17.51;65.71;99087.38;6071971;23;20093;-81
2021/08/01 03:51:50;;;;;;;14.18;11.45;;;;;;;17.43;66.44;99098.78;6072235;23;20353;-81
2021/08/01 03:54:17;;;;;;;13.70;11.13;;;;;;;17.43;65.64;99096.09;6072176;23;20044;-81
2021/08/01 03:57:00;;;;;;;12.27;10.98;;;;;;;17.34;66.39;99097.00;6071708;23;20020;-81
2021/08/01 03:59:27;;;;;;;14.18;12.25;;;;;;;17.34;65.70;99091.69;6071939;23;20057;-81
2021/08/01 04:02:10;;;;;;;17.10;12.73;;;;;;;17.24;66.86;99095.22;6072099;23;20102;-81
2021/08/01 04:04:37;;;;;;;16.52;12.23;;;;;;;17.26;66.14;99087.06;6072095;23;20023;-81
2021/08/01 04:07:03;;;;;;;15.48;12.07;;;;;;;17.21;66.08;99086.69;6071636;23;20103;-81
2021/08/01 04:09:45;;;;;;;15.45;12.82;;;;;;;17.13;67.11;99090.94;6071722;23;20105;-81
2021/08/01 04:12:12;;;;;;;16.83;13.23;;;;;;;17.14;66.46;99091.75;6072176;23;20094;-81
2021/08/01 04:15:04;;;;;;;19.17;13.32;;;;;;;17.07;67.15;99088.84;6072472;23;20097;-81
2021/08/01 04:17:35;;;;;;;16.90;12.40;;;;;;;17.05;67.06;99090.84;6073835;23;20345;-81
2021/08/01 04:20:17;;;;;;;18.00;13.25;;;;;;;16.98;67.42;99089.69;6073348;23;20105;-81
2021/08/01 04:22:43;;;;;;;14.48;12.85;;;;;;;16.99;66.68;99094.03;6073319;23;20018;-81
2021/08/01 04:25:22;;;;;;;14.98;12.52;;;;;;;16.92;67.57;99101.75;6073733;23;20022;-81
2021/08/01 04:27:49;;;;;;;16.55;12.73;;;;;;;16.92;67.01;99105.25;6073448;23;20097;-81
2021/08/01 04:30:33;;;;;;;18.80;14.35;;;;;;;16.86;67.79;99099.69;6073300;23;20022;-81
2021/08/01 04:33:08;;;;;;;15.82;12.98;;;;;;;16.85;67.91;99098.00;6073554;23;20018;-81
2021/08/01 04:35:35;;;;;;;15.80;12.48;;;;;;;16.86;67.12;99086.38;6073646;23;20032;-81
2021/08/01 04:38:09;;;;;;;15.52;12.60;;;;;;;16.83;68.02;99086.66;6073227;23;20021;-81
2021/08/01 04:40:35;;;;;;;15.55;12.75;;;;;;;16.87;67.50;99085.41;6073268;23;20018;-81
2021/08/01 04:43:15;;;;;;;16.80;13.65;;;;;;;16.86;68.21;99083.72;6073789;23;20398;-81
2021/08/01 04:45:42;;;;;;;17.20;13.77;;;;;;;16.93;67.67;99087.47;6073071;23;20097;-81
2021/08/01 04:48:37;;;;;;;18.27;14.05;;;;;;;16.94;68.49;99094.47;6073564;23;20045;-81
2021/08/01 04:51:04;;;;;;;15.95;12.63;;;;;;;17.03;67.52;99101.56;6073594;23;20022;-81
2021/08/01 04:53:35;;;;;;;16.00;12.85;;;;;;;17.06;68.19;99098.66;6073674;23;20399;-81
2021/08/01 04:56:01;;;;;;;16.33;13.30;;;;;;;17.14;67.80;99100.59;6073459;23;20398;-81
2021/08/01 04:58:29;;;;;;;18.38;13.32;;;;;;;17.20;67.66;99104.50;6073071;23;20089;-81
2021/08/01 05:00:56;;;;;;;19.02;12.50;;;;;;;17.27;67.51;99102.91;6073468;23;20345;-81
2021/08/01 05:03:23;;;;;;;18.02;13.27;;;;;;;17.33;67.74;99101.47;6073334;23;20030;-82
2021/08/01 05:05:50;;;;;;;20.40;13.63;;;;;;;17.39;67.82;99100.06;6073478;23;20345;-81
2021/08/01 05:08:17;;;;;;;16.02;12.63;;;;;;;17.46;67.68;99093.16;6073415;23;20401;-81
2021/08/01 05:14:13;;;;;;;17.60;11.90;;;;;;;17.61;67.02;99100.63;6097870;23;20029;-81
2021/08/01 05:17:00;;;;;;;16.38;12.75;;;;;;;17.61;67.53;99112.13;6072856;23;20089;-81
2021/08/01 05:19:27;;;;;;;16.77;12.23;;;;;;;17.67;66.62;99114.19;6073293;23;20058;-81
2021/08/01 05:22:12;;;;;;;16.05;12.88;;;;;;;17.65;66.94;99102.00;6073336;23;20105;-81
2021/08/01 05:24:40;;;;;;;15.77;13.35;;;;;;;17.67;66.46;99108.00;6073265;23;20522;-81
2021/08/01 05:27:19;;;;;;;16.52;12.85;;;;;;;17.62;66.70;99107.63;6072324;23;20015;-81
2021/08/01 05:29:46;;;;;;;15.50;12.43;;;;;;;17.64;66.47;99100.34;6072903;23;20081;-81
2021/08/01 05:32:33;;;;;;;16.23;13.20;;;;;;;17.58;67.13;99097.25;6072735;23;20019;-82
2021/08/01 05:35:01;;;;;;;15.32;12.68;;;;;;;17.64;66.92;99095.00;6072699;23;20030;-81
2021/08/01 05:37:28;;;;;;;16.23;13.10;;;;;;;17.65;66.94;99094.03;6073201;23;20032;-81
2021/08/01 05:39:56;;;;;;;14.10;12.10;;;;;;;17.67;66.96;99100.00;6073307;23;20057;-84
2021/08/01 05:42:50;;;;;;;15.13;11.10;;;;;;;17.64;67.33;99092.34;6072670;23;20105;-85
2021/08/01 05:45:17;;;;;;;13.35;11.95;;;;;;;17.69;66.60;99095.41;6072622;23;20026;-85
2021/08/01 05:47:59;;;;;;;17.40;12.65;;;;;;;17.65;67.19;99088.69;6072556;23;20033;-85
2021/08/01 05:50:25;;;;;;;13.65;12.05;;;;;;;17.70;66.51;99094.41;6073034;23;20101;-86
2021/08/01 05:53:09;;;;;;;16.80;12.73;;;;;;;17.66;67.08;99090.38;6072934;23;20110;-85
2021/08/01 05:55:36;;;;;;;16.92;12.63;;;;;;;17.70;66.61;99089.06;6072559;23;20097;-85
2021/08/01 05:58:18;;;;;;;15.88;12.45;;;;;;;17.65;67.21;99092.19;6072638;23;20105;-85
2021/08/01 06:00:45;;;;;;;15.65;12.27;;;;;;;17.70;66.53;99092.59;6097460;23;20018;-85
2021/08/01 06:03:27;;;;;;;17.50;13.07;;;;;;;17.66;67.24;99091.22;6072510;23;20101;-85
2021/08/01 06:05:54;;;;;;;17.40;13.35;;;;;;;17.72;66.60;99089.78;6072415;23;20081;-85
2021/08/01 06:08:36;;;;;;;18.10;14.15;;;;;;;17.68;67.11;99091.88;6072502;23;20026;-85
2021/08/01 06:11:06;;;;;;;15.70;14.02;;;;;;;17.73;66.79;99088.78;6072519;23;20090;-85
2021/08/01 06:13:45;;;;;;;21.55;13.60;;;;;;;17.70;67.08;99091.75;6072326;23;20037;-85
2021/08/01 06:16:13;;;;;;;16.75;13.30;;;;;;;17.75;66.58;99094.78;6072340;23;20077;-85
2021/08/01 06:18:44;;;;;;;17.67;13.98;;;;;;;17.74;67.11;99093.13;6073366;23;20030;-85
2021/08/01 06:21:32;;;;;;;18.10;13.15;;;;;;;17.77;67.02;99091.97;6072380;23;20022;-85
2021/08/01 06:23:59;;;;;;;16.65;12.90;;;;;;;17.78;66.66;99093.66;6072589;23;20323;-85
2021/08/01 06:26:37;;;;;;;17.40;13.57;;;;;;;17.75;67.58;99099.28;6071674;23;20105;-85
2021/08/01 06:29:04;;;;;;;17.42;13.15;;;;;;;17.81;67.38;99096.00;6072356;23;20524;-85
2021/08/01 06:31:48;;;;;;;18.70;13.93;;;;;;;17.82;67.57;99090.53;6072647;23;20027;-85
2021/08/01 06:34:24;;;;;;;17.70;14.82;;;;;;;17.84;67.81;99091.22;6072036;23;20033;-85
2021/08/01 06:36:50;;;;;;;16.95;14.48;;;;;;;17.92;67.13;99094.94;6071775;23;20106;-85
2021/08/01 06:39:32;;;;;;;19.40;14.80;;;;;;;17.90;67.85;99091.63;6072680;23;20373;-85
2021/08/01 06:41:59;;;;;;;18.42;14.52;;;;;;;17.97;67.74;99088.19;6072245;23;20022;-87
2021/08/01 06:44:43;;;;;;;25.33;14.40;;;;;;;17.99;67.93;99093.38;6071880;23;20109;-86
2021/08/01 06:47:10;;;;;;;23.92;14.98;;;;;;;18.11;67.72;99088.66;6071954;23;20029;-86
2021/08/01 06:49:51;;;;;;;19.05;14.65;;;;;;;18.13;68.09;99091.19;6072118;23;20025;-85
2021/08/01 06:52:36;;;;;;;20.35;14.93;;;;;;;18.26;67.44;99099.63;6076280;23;20057;-86
2021/08/01 06:55:04;;;;;;;20.30;14.73;;;;;;;18.34;67.91;99105.00;6071889;23;20018;-86
2021/08/01 06:57:31;;;;;;;27.55;16.02;;;;;;;18.42;67.81;99100.72;6072005;23;20014;-86
2021/08/01 07:00:10;;;;;;;22.83;15.27;;;;;;;18.47;67.53;99101.13;6072365;23;20446;-85
2021/08/01 07:02:37;;;;;;;21.95;16.15;;;;;;;18.58;67.29;99097.38;6072424;23;20077;-86
2021/08/01 07:05:20;;;;;;;20.80;15.50;;;;;;;18.61;67.50;99091.69;6072225;23;20034;-86
2021/08/01 07:07:47;;;;;;;17.23;13.98;;;;;;;18.71;67.29;99099.59;6071849;23;20028;-86
2021/08/01 07:10:23;;;;;;;19.73;15.73;;;;;;;18.74;67.14;99100.16;6072089;23;20104;-86
2021/08/01 07:12:50;;;;;;;22.70;16.65;;;;;;;18.85;67.31;99090.19;6097757;23;20462;-86
2021/08/01 07:15:22;;;;;;;18.42;15.02;;;;;;;18.93;67.18;99100.06;6071898;23;20061;-86
2021/08/01 07:17:49;;;;;;;21.13;15.65;;;;;;;19.00;66.66;99093.09;6072306;23;20050;-86
2021/08/01 07:20:48;;;;;;;22.38;15.93;;;;;;;19.04;66.69;99091.81;6072103;23;20098;-86
2021/08/01 07:23:14;;;;;;;25.08;15.05;;;;;;;19.17;67.08;99088.72;6072007;23;20062;-86
2021/08/01 07:25:57;;;;;;;18.77;15.38;;;;;;;19.22;66.83;99093.56;6071735;23;20018;-86
2021/08/01 07:28:24;;;;;;;23.02;16.05;;;;;;;19.34;66.88;99088.78;6072331;23;20101;-87
2021/08/01 07:31:10;;;;;;;19.77;16.02;;;;;;;19.39;66.58;99089.13;6072057;23;20101;-86
2021/08/01 07:33:42;;;;;;;18.67;14.63;;;;;;;19.51;66.14;99093.19;6071921;23;20022;-86
2021/08/01 07:36:09;;;;;;;22.95;15.90;;;;;;;19.58;65.99;99090.69;6072089;23;20110;-86
2021/08/01 07:38:38;;;;;;;18.08;14.57;;;;;;;19.63;65.62;99098.22;6072037;23;20097;-86
2021/08/01 07:41:06;;;;;;;18.13;14.25;;;;;;;19.68;65.51;99095.91;6048022;23;20072;-86
2021/08/01 07:44:02;;;;;;;17.95;14.57;;;;;;;19.67;65.98;99100.38;6071897;23;20019;-86
2021/08/01 07:46:29;;;;;;;17.45;14.25;;;;;;;19.77;65.68;99100.25;6097557;23;20025;-86
2021/08/01 07:49:11;;;;;;;17.30;13.00;;;;;;;19.79;65.60;99095.59;6097373;23;20019;-86
2021/08/01 07:51:37;;;;;;;14.88;12.82;;;;;;;19.89;65.86;99092.75;6074248;23;20101;-86
2021/08/01 07:54:19;;;;;;;17.00;13.10;;;;;;;19.92;65.54;99097.78;6073737;23;20109;-86
2021/08/01 07:56:46;;;;;;;17.02;12.40;;;;;;;20.03;65.36;99093.13;6098821;23;20034;-86
2021/08/01 07:59:29;;;;;;;17.38;13.40;;;;;;;20.05;65.16;99096.50;6073625;23;20023;-86
2021/08/01 08:01:56;;;;;;;19.95;12.90;;;;;;;20.16;65.28;99088.16;6074174;23;20375;-86
2021/08/01 08:04:22;;;;;;;16.75;12.70;;;;;;;20.22;65.59;99085.81;6073362;23;20080;-86
2021/08/01 08:06:59;;;;;;;14.80;11.88;;;;;;;20.27;65.78;99089.66;6074360;23;20033;-86
2021/08/01 08:09:26;;;;;;;16.83;11.88;;;;;;;20.41;65.43;99085.44;6073739;23;20109;-86
2021/08/01 08:12:22;;;;;;;14.00;10.45;;;;;;;20.49;65.24;99089.13;6074061;23;20453;-86
2021/08/01 08:14:49;;;;;;;16.63;10.02;;;;;;;20.66;64.87;99087.25;6073263;23;20018;-86
2021/08/01 08:17:33;;;;;;;15.93;10.27;;;;;;;20.72;64.23;99091.09;6073930;23;20054;-86
2021/08/01 08:20:02;;;;;;;14.75;9.82;;;;;;;20.85;64.56;99086.03;6073905;23;20086;-86
2021/08/01 08:22:41;;;;;;;12.93;8.60;;;;;;;20.92;63.99;99094.25;6073480;23;20037;-86
2021/08/01 08:25:10;;;;;;;9.63;8.20;;;;;;;21.04;64.22;99095.56;6097429;23;20064;-86
2021/08/01 08:27:52;;;;;;;13.25;8.55;;;;;;;21.08;63.11;99088.84;6073293;23;20097;-86
2021/08/01 08:30:19;;;;;;;11.73;8.80;;;;;;;21.21;62.68;99091.00;6073437;23;20117;-86
2021/08/01 08:32:56;;;;;;;9.35;7.93;;;;;;;21.25;62.90;99096.81;6073799;23;20816;-86
2021/08/01 08:35:23;;;;;;;10.63;7.95;;;;;;;21.34;62.92;99094.94;6072987;23;20091;-86
2021/08/01 08:37:53;;;;;;;10.27;8.02;;;;;;;21.38;62.52;99093.56;6097443;23;20054;-86
2021/08/01 08:40:21;;;;;;;12.10;8.38;;;;;;;21.44;62.57;99095.56;6073639;23;20094;-87
2021/08/01 08:43:20;;;;;;;12.13;7.40;;;;;;;21.47;62.51;99089.03;6073264;23;20093;-87
2021/08/01 08:45:48;;;;;;;8.40;6.82;;;;;;;21.58;62.01;99090.47;6073408;23;20453;-87
2021/08/01 08:48:22;;;;;;;9.43;6.60;;;;;;;21.60;60.79;99100.00;6073615;23;20399;-86
2021/08/01 08:50:50;;;;;;;9.70;6.57;;;;;;;21.67;61.40;99104.66;6073026;23;20018;-86
2021/08/01 08:53:19;;;;;;;7.82;6.55;;;;;;;21.71;61.53;99095.25;6073189;23;20027;-86
2021/08/01 08:55:47;;;;;;;8.05;6.40;;;;;;;21.79;61.31;99099.78;6098610;23;20105;-86
2021/08/01 08:58:48;;;;;;;8.15;6.70;;;;;;;21.83;60.36;99093.06;6073512;23;20361;-89
2021/08/01 09:01:15;;;;;;;8.00;6.95;;;;;;;21.93;60.60;99093.63;6096221;23;20026;-86
2021/08/01 09:03:59;;;;;;;8.35;6.47;;;;;;;21.97;59.96;99094.09;6073442;23;20034;-86
2021/08/01 09:06:29;;;;;;;10.52;6.22;;;;;;;22.09;60.09;99083.81;6073404;23;20029;-86
2021/08/01 09:09:10;;;;;;;7.00;6.30;;;;;;;22.17;59.85;99089.13;6072815;23;20023;-86
2021/08/01 09:11:36;;;;;;;10.18;5.57;;;;;;;22.32;59.49;99093.69;6073116;23;20054;-86
2021/08/01 09:14:20;;;;;;;6.75;5.43;;;;;;;22.36;59.02;99103.03;6096547;23;20069;-87
2021/08/01 09:16:50;;;;;;;7.68;5.38;;;;;;;22.48;58.41;99096.22;6073674;23;20036;-86
2021/08/01 09:19:30;;;;;;;6.43;5.15;;;;;;;22.51;57.76;99089.66;6096772;23;20105;-86
2021/08/01 09:22:13;;;;;;;9.75;6.10;;;;;;;22.52;57.36;99096.69;6073059;23;20113;-87
2021/08/01 09:24:51;;;;;;;5.68;5.13;;;;;;;22.52;57.23;99097.53;5959016;24;20095;-86
2021/08/01 09:31:39;;;;;;;5.65;4.68;;;;;;;22.49;57.43;99097.88;5969040;24;20103;-86
2021/08/01 09:34:57;;;;;;;5.38;4.53;;;;;;;22.45;57.01;99101.94;5958216;24;20023;-86
2021/08/01 09:37:35;;;;;;;6.38;4.68;;;;;;;22.39;56.04;99103.50;5958861;24;20111;-86
2021/08/01 09:40:09;;;;;;;5.72;4.57;;;;;;;22.36;55.94;99103.84;5958777;24;20031;-86
2021/08/01 09:42:45;;;;;;;5.90;4.55;;;;;;;22.30;56.21;99099.22;6004132;23;20114;-86
2021/08/01 09:45:18;;;;;;;6.70;4.47;;;;;;;22.25;56.24;99101.63;6098243;23;20350;-86
2021/08/01 09:47:46;;;;;;;6.97;5.22;;;;;;;22.22;56.83;99099.28;6072997;23;20414;-86
2021/08/01 09:50:20;;;;;;;7.82;5.25;;;;;;;22.19;56.25;99094.28;6073088;23;20121;-87
2021/08/01 09:52:47;;;;;;;6.18;5.28;;;;;;;22.23;57.36;99093.75;6072910;23;20023;-86
2021/08/01 09:55:34;;;;;;;5.50;5.00;;;;;;;22.24;57.88;99082.00;6096651;23;20029;-86
2021/08/01 09:58:01;;;;;;;6.45;4.63;;;;;;;22.41;58.26;99089.91;6072630;23;20026;-86
2021/08/01 10:03:57;;;;;;;8.23;5.47;;;;;;;22.79;56.92;99089.06;6097802;23;20453;-86
2021/08/01 10:09:48;;;;;;;5.13;3.97;;;;;;;23.08;56.53;99083.88;6098058;23;20065;-86
2021/08/01 10:12:43;;;;;;;5.07;4.68;;;;;;;23.13;55.76;99092.22;6096403;23;20097;-86
2021/08/01 10:15:11;;;;;;;5.30;4.80;;;;;;;23.25;55.87;99088.03;6072208;23;20024;-86
2021/08/01 10:17:51;;;;;;;6.03;4.80;;;;;;;23.28;55.18;99076.09;6072786;23;20656;-86
2021/08/01 10:20:22;;;;;;;4.78;4.25;;;;;;;23.37;54.77;99074.16;6072762;23;20393;-86
2021/08/01 10:22:51;;;;;;;8.48;5.63;;;;;;;23.43;54.58;99065.34;6072291;23;20018;-86
2021/08/01 10:25:21;;;;;;;7.07;5.07;;;;;;;23.45;54.31;99075.91;6072061;23;20029;-86
2021/08/01 10:27:55;;;;;;;5.53;4.25;;;;;;;23.48;53.96;99068.31;6072953;23;20022;-86
2021/08/01 10:30:27;;;;;;;5.93;4.85;;;;;;;23.54;54.68;99072.09;6072251;23;20105;-86
2021/08/01 10:33:20;;;;;;;5.18;4.68;;;;;;;23.60;54.84;99063.28;6072720;23;20026;-86
2021/08/01 10:38:43;;;;;;;4.15;3.67;;;;;;;23.85;54.67;99072.81;6097497;23;20105;-86
2021/08/01 10:41:58;;;;;;;7.18;5.22;;;;;;;23.82;53.75;99074.84;6072118;23;20029;-86
2021/08/01 10:44:25;;;;;;;4.28;3.95;;;;;;;23.86;53.34;99067.25;6096037;23;20029;-86
2021/08/01 10:47:10;;;;;;;6.10;4.15;;;;;;;23.76;53.72;99080.16;6072214;23;20098;-86
2021/08/01 10:49:42;;;;;;;6.50;3.65;;;;;;;23.77;53.11;99089.91;6072466;23;20450;-85
2021/08/01 10:52:19;;;;;;;4.97;4.17;;;;;;;23.78;54.10;99081.63;6072113;23;20030;-85
2021/08/01 10:54:55;;;;;;;5.25;4.75;;;;;;;23.92;54.52;99085.28;6072308;23;20097;-85
2021/08/01 10:57:28;;;;;;;7.25;4.47;;;;;;;24.17;54.40;99082.25;6096418;23;20481;-86
2021/08/01 10:59:58;;;;;;;4.55;4.10;;;;;;;24.53;55.94;99075.09;6072169;23;20106;-85
2021/08/01 11:02:37;;;;;;;5.35;4.63;;;;;;;24.95;53.74;99077.88;6095882;23;20033;-86
2021/08/01 11:05:35;;;;;;;5.50;4.18;;;;;;;25.34;53.47;99075.56;6072556;23;20462;-86
2021/08/01 11:08:08;;;;;;;5.53;4.75;;;;;;;25.65;51.26;99073.41;6072276;23;20090;-86
2021/08/01 11:10:35;;;;;;;7.13;4.78;;;;;;;25.95;52.31;99067.66;6071958;23;20112;-86
2021/08/01 11:13:54;;;;;;;5.00;4.32;;;;;;;26.22;50.90;99064.13;6072616;23;20331;-86
2021/08/01 11:16:30;;;;;;;6.85;4.82;;;;;;;26.52;49.23;99067.28;6096163;23;20026;-86
2021/08/01 11:19:32;;;;;;;5.28;4.22;;;;;;;26.66;49.76;99067.25;6095909;23;20105;-86
2021/08/01 11:22:41;;;;;;;4.85;4.22;;;;;;;26.86;48.73;99074.47;6071986;23;20113;-86
2021/08/01 11:25:22;;;;;;;5.93;4.05;;;;;;;27.00;46.77;99080.69;6096853;23;20019;-86
2021/08/01 11:28:29;;;;;;;4.90;4.40;;;;;;;27.03;47.67;99081.09;6073895;23;20102;-86
2021/08/01 11:30:57;;;;;;;4.90;3.92;;;;;;;27.05;46.88;99075.47;6074346;23;20030;-86
2021/08/01 11:33:43;;;;;;;4.30;3.90;;;;;;;26.92;46.57;99077.13;6098137;23;20029;-86
2021/08/01 11:36:10;;;;;;;4.13;3.55;;;;;;;26.99;48.67;99073.63;6074027;23;20418;-86
2021/08/01 11:42:30;;;;;;;5.85;4.63;;;;;;;27.47;47.52;99076.97;6099099;23;20017;-86
2021/08/01 11:49:03;;;;;;;5.97;3.83;;;;;;;27.81;46.56;99091.97;5982662;24;20509;-86
2021/08/01 11:51:31;;;;;;;6.22;3.78;;;;;;;27.90;45.91;99089.84;5959636;24;20046;-85
2021/08/01 11:54:14;;;;;;;5.45;4.10;;;;;;;27.86;45.12;99114.84;5959345;24;20803;-86
2021/08/01 11:56:41;;;;;;;4.85;3.90;;;;;;;27.90;45.35;99097.13;5959823;24;20106;-86
2021/08/01 11:59:22;;;;;;;5.30;3.90;;;;;;;27.82;44.64;99101.78;5959548;24;20052;-86
2021/08/01 12:01:49;;;;;;;4.22;3.83;;;;;;;27.80;44.28;99103.00;5959582;24;20132;-86
2021/08/01 12:04:32;;;;;;;4.15;3.75;;;;;;;27.63;44.94;99100.00;6070798;23;20029;-86
2021/08/01 12:06:58;;;;;;;4.85;3.85;;;;;;;27.61;45.73;99097.50;6098030;23;20346;-86
2021/08/01 12:09:42;;;;;;;6.25;4.22;;;;;;;27.60;46.46;99103.09;6073529;23;20078;-86
2021/08/01 12:12:10;;;;;;;6.70;4.85;;;;;;;27.83;46.68;99099.88;6073634;23;20026;-86
2021/08/01 12:14:53;;;;;;;9.07;5.20;;;;;;;28.10;45.56;99102.41;6073190;23;20085;-86
2021/08/01 12:17:20;;;;;;;5.60;5.05;;;;;;;28.42;44.88;99104.28;6074030;23;20096;-86
2021/08/01 12:20:01;;;;;;;6.90;5.10;;;;;;;28.49;42.08;99105.06;6073511;23;20018;-86
2021/08/01 12:22:27;;;;;;;6.88;5.57;;;;;;;28.48;42.82;99111.53;6099147;23;20409;-86
2021/08/01 12:25:00;;;;;;;6.00;5.40;;;;;;;28.21;42.08;99108.97;6073734;23;20349;-86
2021/08/01 12:27:35;;;;;;;7.75;6.28;;;;;;;27.86;42.30;99117.53;6073501;23;20029;-86
2021/08/01 12:30:19;;;;;;;8.23;6.65;;;;;;;27.53;43.83;99112.06;6073608;23;20030;-86
2021/08/01 12:32:47;;;;;;;7.10;5.82;;;;;;;27.37;44.27;99112.56;6073712;23;20476;-86
2021/08/01 12:35:26;;;;;;;9.13;7.18;;;;;;;27.16;44.38;99120.75;6073281;23;20022;-86
2021/08/01 12:38:14;;;;;;;9.07;6.47;;;;;;;27.03;44.65;99120.78;6073143;23;20026;-86
2021/08/01 12:40:45;;;;;;;7.03;6.32;;;;;;;26.84;44.34;99125.16;6072969;23;20023;-86
2021/08/01 12:43:24;;;;;;;9.40;6.45;;;;;;;26.70;44.93;99103.56;6073427;23;20081;-88
2021/08/01 12:45:51;;;;;;;8.32;6.30;;;;;;;26.65;45.06;99115.00;6073095;23;20106;-86
2021/08/01 12:48:27;;;;;;;8.55;6.95;;;;;;;26.65;45.06;99124.97;6073138;23;20098;-86